createdAt,value
2023-03-20T00:01:36.958Z,96.1
2023-03-20T00:06:36.330Z,95.5
2023-03-20T00:11:36.382Z,93.7
2023-03-20T00:16:36.337Z,87.0
2023-03-20T00:21:36.510Z,86.4
2023-03-20T00:26:36.325Z,82.0
2023-03-20T00:31:36.324Z,86.2
2023-03-20T00:36:36.529Z,80.8
2023-03-20T00:41:36.351Z,84.9
2023-03-20T00:46:36.348Z,73.1
2023-03-20T00:51:36.403Z,84.7
2023-03-20T00:56:36.336Z,78.3
2023-03-20T01:01:36.435Z,68.5
2023-03-20T01:06:36.415Z,59.5
2023-03-20T01:11:36.345Z,60.6
2023-03-20T01:16:36.341Z,59.4
2023-03-20T01:21:36.493Z,55.5
2023-03-20T01:26:36.291Z,57.5
2023-03-20T01:31:36.754Z,53.5
2023-03-20T01:36:36.358Z,54.2
2023-03-20T01:41:36.220Z,51.3
2023-03-20T01:46:36.265Z,48.9
2023-03-20T01:51:36.255Z,48.5
2023-03-20T01:56:36.226Z,50.4
2023-03-20T02:01:36.264Z,49.4
2023-03-20T02:06:36.362Z,47.9
2023-03-20T02:11:36.175Z,46.5
2023-03-20T02:16:36.238Z,48.1
2023-03-20T02:21:36.268Z,43.3
2023-03-20T02:26:36.077Z,43.4
2023-03-20T02:31:36.047Z,43.2
2023-03-20T02:36:36.264Z,45.7
2023-03-20T02:41:42.861Z,42.3
2023-03-20T02:46:36.032Z,41.8
2023-03-20T02:51:36.062Z,48.5
2023-03-20T02:56:36.091Z,46.2
2023-03-20T03:01:36.086Z,45.9
2023-03-20T03:06:36.003Z,42.7
2023-03-20T03:11:36.007Z,44.6
2023-03-20T03:16:36.053Z,52.2
2023-03-20T03:21:36.219Z,43.7
2023-03-20T03:26:35.950Z,45.1
2023-03-20T03:31:36.017Z,44.0
2023-03-20T03:36:36.172Z,46.8
2023-03-20T03:41:36.198Z,47.1
2023-03-20T03:46:36.001Z,43.6
2023-03-20T03:51:36.006Z,45.1
2023-03-20T03:56:35.971Z,58.8
2023-03-20T04:01:36.170Z,54.1
2023-03-20T04:06:36.030Z,44.8
2023-03-20T04:11:36.918Z,47.5
2023-03-20T04:16:35.903Z,45.9
2023-03-20T04:21:35.947Z,46.2
2023-03-20T04:26:35.972Z,48.5
2023-03-20T04:31:35.965Z,49.7
2023-03-20T04:36:36.057Z,47.6
2023-03-20T04:41:36.565Z,48.7
2023-03-20T04:46:35.943Z,106.5
2023-03-20T04:51:35.810Z,55.2
2023-03-20T04:56:36.019Z,54.3
2023-03-20T05:01:35.957Z,48.6
2023-03-20T05:06:35.798Z,55.9
2023-03-20T05:11:36.039Z,52.7
2023-03-20T05:16:35.820Z,51.8
2023-03-20T05:21:35.854Z,50.2
2023-03-20T05:26:35.958Z,51.3
2023-03-20T05:31:35.728Z,57.3
2023-03-20T05:36:35.747Z,53.5
2023-03-20T05:41:35.880Z,50.1
2023-03-20T05:46:35.866Z,48.5
2023-03-20T05:51:36.038Z,46.2
2023-03-20T05:56:35.947Z,52.0
2023-03-20T06:01:35.675Z,51.6
2023-03-20T06:06:35.683Z,53.5
2023-03-20T06:11:37.610Z,56.6
2023-03-20T06:16:35.731Z,55.6
2023-03-20T06:21:35.626Z,61.2
2023-03-20T06:26:35.778Z,50.1
2023-03-20T06:31:35.721Z,46.6
2023-03-20T06:36:35.730Z,46.7
2023-03-20T06:41:35.932Z,53.3
2023-03-20T06:46:35.843Z,48.8
2023-03-20T06:51:35.808Z,49.5
2023-03-20T06:56:35.706Z,56.0
2023-03-20T07:01:35.629Z,61.7
2023-03-20T07:06:35.678Z,56.4
2023-03-20T07:11:35.840Z,53.2
2023-03-20T07:16:35.673Z,45.7
2023-03-20T07:21:35.587Z,43.8
2023-03-20T07:26:35.514Z,41.6
2023-03-20T07:31:35.730Z,39.8
2023-03-20T07:36:35.640Z,40.8
2023-03-20T07:41:35.868Z,47.6
2023-03-20T07:46:35.546Z,51.6
2023-03-20T07:51:35.519Z,46.8
2023-03-20T07:56:35.700Z,43.7
2023-03-20T08:01:35.700Z,64.1
2023-03-20T08:06:35.631Z,46.8
2023-03-20T08:11:35.527Z,35.0
2023-03-20T08:16:35.608Z,37.9
2023-03-20T08:21:35.566Z,45.8
2023-03-20T08:26:35.636Z,42.0
2023-03-20T08:31:35.798Z,45.6
2023-03-20T08:36:35.378Z,41.8
2023-03-20T08:41:35.562Z,37.1
2023-03-20T08:46:35.585Z,39.1
2023-03-20T08:51:35.383Z,62.8
2023-03-20T08:56:35.689Z,71.1
2023-03-20T09:01:48.327Z,54.4
2023-03-20T09:06:35.471Z,52.2
2023-03-20T09:11:35.593Z,93.9
2023-03-20T09:16:35.821Z,51.7
2023-03-20T09:21:35.371Z,46.1
2023-03-20T09:26:35.453Z,99.0
2023-03-20T09:31:35.793Z,52.6
2023-03-20T09:36:36.187Z,81.2
2023-03-20T09:41:45.572Z,102.8
2023-03-20T09:46:35.390Z,54.7
2023-03-20T09:51:35.302Z,49.1
2023-03-20T09:56:35.433Z,49.9
2023-03-20T10:01:37.145Z,46.6
2023-03-20T10:06:35.555Z,88.9
2023-03-20T10:11:35.359Z,53.9
2023-03-20T10:16:36.056Z,61.3
2023-03-20T10:21:35.227Z,47.3
2023-03-20T10:26:35.306Z,44.1
2023-03-20T10:31:35.616Z,40.2
2023-03-20T10:36:36.150Z,56.1
2023-03-20T10:41:35.389Z,47.9
2023-03-20T10:46:35.761Z,45.1
2023-03-20T10:51:35.435Z,43.0
2023-03-20T10:56:35.290Z,44.9
2023-03-20T11:01:35.920Z,47.9
2023-03-20T11:06:35.356Z,41.1
2023-03-20T11:11:35.257Z,49.8
2023-03-20T11:16:35.274Z,62.5
2023-03-20T11:21:35.530Z,67.0
2023-03-20T11:26:35.188Z,58.0
2023-03-20T11:31:35.234Z,56.7
2023-03-20T11:36:35.710Z,57.9
2023-03-20T11:41:35.167Z,51.8
2023-03-20T11:46:35.561Z,49.1
2023-03-20T11:51:35.305Z,47.6
2023-03-20T11:56:35.817Z,60.7
2023-03-20T12:01:35.061Z,50.7
2023-03-20T12:06:35.244Z,42.4
2023-03-20T12:11:35.097Z,42.6
2023-03-20T12:16:35.100Z,48.0
2023-03-20T12:21:35.275Z,40.3
2023-03-20T12:26:35.062Z,54.9
2023-03-20T12:31:35.100Z,64.1
2023-03-20T12:36:35.613Z,50.3
2023-03-20T12:41:35.242Z,44.3
2023-03-20T12:46:35.171Z,39.8
2023-03-20T12:51:35.310Z,49.5
2023-03-20T12:56:35.064Z,38.0
2023-03-20T13:01:35.298Z,36.3
2023-03-20T13:06:35.279Z,38.9
2023-03-20T13:11:35.144Z,38.8
2023-03-20T13:16:35.094Z,30.4
2023-03-20T13:21:38.216Z,26.2
2023-03-20T13:26:34.944Z,58.5
2023-03-20T13:31:35.026Z,49.9
2023-03-20T13:36:35.215Z,47.3
2023-03-20T13:41:34.912Z,28.3
2023-03-20T13:46:35.367Z,52.8
2023-03-20T13:51:35.244Z,69.9
2023-03-20T13:56:35.521Z,48.4
2023-03-20T14:01:34.902Z,46.4
2023-03-20T14:06:35.171Z,72.2
2023-03-20T14:11:35.218Z,39.4
2023-03-20T14:16:34.927Z,34.1
2023-03-20T14:21:34.860Z,24.9
2023-03-20T14:26:34.894Z,41.5
2023-03-20T14:31:35.268Z,79.2
2023-03-20T14:36:35.117Z,53.0
2023-03-20T14:41:35.195Z,44.3
2023-03-20T14:46:35.154Z,43.7
2023-03-20T14:51:34.879Z,84.8
2023-03-20T14:56:34.930Z,36.4
2023-03-20T15:01:34.930Z,43.5
2023-03-20T15:06:35.171Z,45.3
2023-03-20T15:11:34.787Z,79.3
2023-03-20T15:16:34.879Z,58.9
2023-03-20T15:21:35.096Z,56.6
2023-03-20T15:26:34.851Z,31.6
2023-03-20T15:31:34.842Z,49.9
2023-03-20T15:36:35.515Z,45.7
2023-03-20T15:41:34.783Z,102.1
2023-03-20T15:46:34.938Z,42.4
2023-03-20T15:51:35.152Z,40.9
2023-03-20T15:56:34.841Z,55.3
2023-03-20T16:01:34.814Z,50.0
2023-03-20T16:06:34.732Z,35.6
2023-03-20T16:11:34.776Z,29.8
2023-03-20T16:16:35.271Z,34.8
2023-03-20T16:21:34.860Z,33.2
2023-03-20T16:26:34.748Z,37.9
2023-03-20T16:31:34.920Z,46.7
2023-03-20T16:36:45.937Z,67.2
2023-03-20T16:41:34.886Z,52.4
2023-03-20T16:46:35.003Z,46.6
2023-03-20T16:51:35.064Z,74.8
2023-03-20T16:56:34.879Z,72.9
2023-03-20T17:01:35.600Z,83.0
2023-03-20T17:06:35.644Z,151.8
2023-03-20T17:11:34.900Z,100.3
2023-03-20T17:16:35.117Z,97.9
2023-03-20T17:21:35.080Z,90.8
2023-03-20T17:26:34.928Z,99.6
2023-03-20T17:31:34.962Z,85.6
2023-03-20T17:36:35.027Z,93.3
2023-03-20T17:41:35.175Z,88.8
2023-03-20T17:46:46.258Z,81.9
2023-03-20T17:51:35.045Z,84.3
2023-03-20T17:56:35.205Z,87.4
2023-03-20T18:01:35.098Z,91.2
2023-03-20T18:06:35.151Z,82.4
2023-03-20T18:11:35.510Z,93.8
2023-03-20T18:16:35.563Z,100.3
2023-03-20T18:21:35.486Z,125.1
2023-03-20T18:26:35.516Z,120.2
2023-03-20T18:31:35.763Z,117.9
2023-03-20T18:36:35.533Z,129.4
2023-03-20T18:41:35.577Z,127.6
2023-03-20T18:46:35.769Z,134.0
2023-03-20T18:51:35.528Z,582.3
2023-03-20T18:56:35.646Z,465.4
2023-03-20T19:01:35.913Z,330.8
2023-03-20T19:06:35.406Z,246.4
2023-03-20T19:11:35.543Z,167.3
2023-03-20T19:16:35.749Z,196.6
2023-03-20T19:21:35.646Z,212.8
2023-03-20T19:26:35.645Z,210.9
2023-03-20T19:31:35.708Z,224.6
2023-03-20T19:36:35.671Z,249.4
2023-03-20T19:41:35.701Z,270.0
2023-03-20T19:46:40.183Z,253.1
2023-03-20T19:51:34.432Z,286.1
2023-03-20T19:56:35.579Z,286.1
2023-03-20T20:01:35.629Z,258.7
2023-03-20T20:06:36.170Z,305.0
2023-03-20T20:11:35.743Z,243.4
2023-03-20T20:16:36.149Z,230.7
2023-03-20T20:22:19.736Z,181.2
2023-03-20T20:26:40.527Z,205.1
2023-03-20T20:31:35.308Z,192.3
2023-03-20T20:37:26.019Z,129.1
2023-03-20T20:41:35.372Z,186.6
2023-03-20T20:46:35.476Z,165.2
2023-03-20T20:51:35.358Z,175.0
2023-03-20T20:56:34.413Z,162.0
2023-03-20T21:01:34.453Z,96.2
2023-03-20T21:07:05.549Z,67.2
2023-03-20T21:11:35.158Z,60.8
2023-03-20T21:16:35.224Z,99.2
2023-03-20T21:21:34.200Z,116.7
2023-03-20T21:26:34.207Z,64.4
2023-03-20T21:31:34.432Z,57.8
2023-03-20T21:36:35.211Z,78.4
2023-03-20T21:41:35.422Z,70.3
2023-03-20T21:57:21.163Z,97.1
2023-03-20T22:02:08.542Z,74.5
2023-03-20T22:07:23.801Z,58.5
2023-03-20T22:12:18.189Z,60.2
2023-03-20T22:17:33.028Z,43.3
2023-03-20T22:22:16.603Z,68.3
2023-03-20T22:27:34.826Z,169.2
2023-03-20T22:37:27.596Z,138.4
2023-03-20T22:42:28.659Z,87.8
2023-03-20T22:46:45.352Z,56.5
2023-03-20T22:51:38.592Z,47.0
2023-03-20T22:56:34.112Z,88.5
2023-03-20T23:01:34.294Z,80.3
2023-03-20T23:06:34.038Z,64.9
2023-03-20T23:11:34.075Z,67.2
2023-03-20T23:16:34.190Z,75.1
2023-03-20T23:21:33.988Z,63.4
2023-03-20T23:26:33.965Z,48.7
2023-03-20T23:31:34.171Z,50.2
2023-03-20T23:36:37.335Z,52.7
2023-03-20T23:42:04.648Z,57.3
2023-03-20T23:46:34.060Z,61.6
2023-03-20T23:51:35.017Z,63.0
2023-03-20T23:56:34.154Z,101.2
